Time;durP1;ratioP1;P1;durP2;ratioP2;P2;SDS_P1;SDS_P2;PMS_P1;PMS_P2;Temp;Humidity;BMP_temperature;BMP_pressure;BME280_temperature;BME280_humidity;BME280_pressure;Samples;Min_cycle;Max_cycle;Signal;HPM_P1;HPM_P2
2023/10/10 00:01:38;;;;;;;;;;;19.90;67.50;;;;;;5019667;28;964;-65
2023/10/10 00:04:05;;;;;;;;;;;19.90;67.60;;;;;;5020953;28;1970;-65
2023/10/10 00:06:33;;;;;;;;;;;19.90;67.50;;;;;;5021105;28;1366;-65
2023/10/10 00:08:58;;;;;;;;;;;19.90;67.60;;;;;;5005463;28;1081;-65
2023/10/10 00:11:26;;;;;;;;;;;19.90;67.60;;;;;;5018284;28;1069;-65
2023/10/10 00:14:05;;;;;;;;;;;19.90;67.60;;;;;;5021236;28;1184;-65
2023/10/10 00:16:40;;;;;;;;;;;19.90;67.60;;;;;;5022262;28;1298;-65
2023/10/10 00:19:29;;;;;;;;;;;19.90;67.60;;;;;;5003627;28;1182;-65
2023/10/10 00:21:55;;;;;;;;;;;19.90;67.70;;;;;;5022172;28;1187;-65
2023/10/10 00:24:24;;;;;;;;;;;19.90;67.70;;;;;;5022761;28;1902;-65
2023/10/10 00:26:49;;;;;;;;;;;19.90;67.80;;;;;;5018972;28;1285;-65
2023/10/10 00:29:18;;;;;;;;;;;19.90;67.80;;;;;;5018290;28;993;-65
2023/10/10 00:31:47;;;;;;;;;;;19.90;67.80;;;;;;5003123;28;1041;-65
2023/10/10 00:34:13;;;;;;;;;;;19.90;67.80;;;;;;5006154;28;1212;-65
2023/10/10 00:36:40;;;;;;;;;;;19.90;67.80;;;;;;5002725;28;1276;-65
2023/10/10 00:44:18;;;;;;;;;;;19.80;67.80;;;;;;5004259;28;1902;-65
2023/10/10 00:46:47;;;;;;;;;;;19.90;67.90;;;;;;5017869;28;1390;-65
2023/10/10 00:49:17;;;;;;;;;;;19.90;67.90;;;;;;5003647;28;1218;-65
2023/10/10 00:51:46;;;;;;;;;;;19.90;67.90;;;;;;5005657;28;1213;-65
2023/10/10 00:54:34;;;;;;;;;;;19.90;68.00;;;;;;5007490;28;1077;-65
2023/10/10 00:56:59;;;;;;;;;;;19.90;68.00;;;;;;5021555;28;1314;-65
2023/10/10 00:59:32;;;;;;;;;;;19.90;68.00;;;;;;5021238;28;1186;-65
2023/10/10 01:01:57;;;;;;;;;;;19.90;68.00;;;;;;5010152;28;1298;-65
2023/10/10 01:04:35;;;;;;;;;;;19.90;68.00;;;;;;5024809;28;1914;-65
2023/10/10 01:07:06;;;;;;;;;;;19.90;68.10;;;;;;5025532;28;1367;-65
2023/10/10 01:09:40;;;;;;;;;;;19.90;68.10;;;;;;5025285;28;971;-65
2023/10/10 01:12:05;;;;;;;;;;;19.90;68.10;;;;;;5008738;28;1146;-65
2023/10/10 01:14:31;;;;;;;;;;;19.90;68.10;;;;;;5022964;28;1097;-65
2023/10/10 01:17:00;;;;;;;;;;;19.90;68.10;;;;;;5021185;28;1370;-65
2023/10/10 01:19:28;;;;;;;;;;;19.90;68.20;;;;;;5022097;28;1166;-65
2023/10/10 01:22:00;;;;;;;;;;;19.90;68.20;;;;;;5023986;28;1105;-65
2023/10/10 01:24:26;;;;;;;;;;;19.90;68.20;;;;;;5020877;28;1948;-65
2023/10/10 01:26:52;;;;;;;;;;;19.90;68.20;;;;;;5009255;28;1285;-65
2023/10/10 01:31:51;;;;;;;;;;;19.90;68.40;;;;;;5022766;28;991;-65
2023/10/10 01:34:33;;;;;;;;;;;19.90;69.00;;;;;;5008077;28;976;-65
2023/10/10 01:37:14;;;;;;;;;;;19.90;68.30;;;;;;5021933;28;1307;-65
2023/10/10 01:40:17;;;;;;;;;;;19.90;68.30;;;;;;5009233;28;1019;-65
2023/10/10 01:42:53;;;;;;;;;;;19.90;68.30;;;;;;5009131;28;1965;-65
2023/10/10 01:45:19;;;;;;;;;;;19.90;68.30;;;;;;5025089;28;968;-65
2023/10/10 01:47:56;;;;;;;;;;;19.90;68.40;;;;;;5025710;28;1295;-65
2023/10/10 01:50:22;;;;;;;;;;;19.90;68.50;;;;;;5008627;28;983;-65
2023/10/10 01:52:48;;;;;;;;;;;19.90;68.40;;;;;;5006561;28;1265;-65
2023/10/10 01:55:16;;;;;;;;;;;19.90;68.40;;;;;;5024519;28;1065;-65
2023/10/10 01:57:42;;;;;;;;;;;19.90;68.40;;;;;;5021712;28;1318;-65
2023/10/10 02:00:20;;;;;;;;;;;19.90;68.50;;;;;;5026012;28;1254;-65
2023/10/10 02:02:49;;;;;;;;;;;19.90;68.50;;;;;;5024742;28;1979;-65
2023/10/10 02:05:22;;;;;;;;;;;19.90;68.50;;;;;;5024451;28;999;-65
2023/10/10 02:07:53;;;;;;;;;;;19.90;68.50;;;;;;5022548;28;1423;-65
2023/10/10 02:10:19;;;;;;;;;;;19.90;68.50;;;;;;5022451;28;957;-65
2023/10/10 02:12:44;;;;;;;;;;;19.90;68.50;;;;;;5022641;28;1067;-65
2023/10/10 02:15:15;;;;;;;;;;;19.90;68.60;;;;;;5025141;28;1307;-65
2023/10/10 02:17:51;;;;;;;;;;;19.90;68.50;;;;;;5022922;28;1304;-65
2023/10/10 02:22:53;;;;;;;;;;;19.90;68.60;;;;;;5022668;28;1914;-65
2023/10/10 02:28:00;;;;;;;;;;;19.90;68.60;;;;;;5022783;28;1340;-65
2023/10/10 02:30:46;;;;;;;;;;;19.90;68.60;;;;;;5008015;28;984;-65
2023/10/10 02:33:16;;;;;;;;;;;19.90;68.60;;;;;;5008038;28;1040;-65
2023/10/10 02:35:54;;;;;;;;;;;19.90;68.60;;;;;;5004965;28;1137;-65
2023/10/10 02:38:32;;;;;;;;;;;19.90;68.60;;;;;;5019207;28;1314;-65
2023/10/10 02:41:14;;;;;;;;;;;19.90;68.60;;;;;;5020003;28;1142;-65
2023/10/10 02:43:46;;;;;;;;;;;19.90;68.60;;;;;;5007919;28;1903;-65
2023/10/10 02:46:17;;;;;;;;;;;19.90;68.70;;;;;;5023283;28;1230;-65
2023/10/10 02:48:53;;;;;;;;;;;19.90;68.70;;;;;;5018734;28;1144;-65
2023/10/10 02:51:20;;;;;;;;;;;19.90;68.70;;;;;;5022811;28;1098;-65
2023/10/10 02:53:46;;;;;;;;;;;19.90;68.70;;;;;;5018368;28;990;-65
2023/10/10 02:56:18;;;;;;;;;;;19.90;69.00;;;;;;5006630;28;1364;-65
2023/10/10 02:58:45;;;;;;;;;;;19.90;68.70;;;;;;5003706;28;1329;-65
2023/10/10 03:01:25;;;;;;;;;;;19.90;68.70;;;;;;5019679;28;979;-65
2023/10/10 03:03:54;;;;;;;;;;;19.90;68.70;;;;;;4994486;28;1898;-65
2023/10/10 03:06:28;;;;;;;;;;;19.90;68.80;;;;;;5023628;28;1416;-65
2023/10/10 03:09:06;;;;;;;;;;;19.90;68.80;;;;;;5020994;28;1102;-65
2023/10/10 03:11:36;;;;;;;;;;;19.90;68.80;;;;;;5022763;28;955;-65
2023/10/10 03:14:07;;;;;;;;;;;19.90;68.80;;;;;;5020271;28;1138;-65
2023/10/10 03:16:45;;;;;;;;;;;19.90;68.80;;;;;;5021228;28;1376;-65
2023/10/10 03:27:00;;;;;;;;;;;19.90;68.90;;;;;;5021363;28;1737;-65
2023/10/10 03:29:47;;;;;;;;;;;19.90;68.90;;;;;;5018728;28;1057;-65
2023/10/10 03:34:56;;;;;;;;;;;19.90;68.90;;;;;;5020106;28;1052;-65
2023/10/10 03:39:54;;;;;;;;;;;19.90;69.00;;;;;;5019056;28;991;-65
2023/10/10 05:23:36;;;;;;;;;;;19.90;69.40;;;;;;5035018;28;1898;-71
2023/10/10 05:26:02;;;;;;;;;;;19.90;69.40;;;;;;5035798;28;1436;-71
2023/10/10 05:28:32;;;;;;;;;;;19.90;69.40;;;;;;5015896;28;1391;-71
2023/10/10 05:30:58;;;;;;;;;;;19.90;69.40;;;;;;5033751;28;1160;-71
2023/10/10 05:33:26;;;;;;;;;;;19.90;69.40;;;;;;5007084;28;1220;-71
2023/10/10 05:35:57;;;;;;;;;;;19.90;69.40;;;;;;5033137;28;1564;-72
2023/10/10 05:38:22;;;;;;;;;;;19.90;69.50;;;;;;5032616;28;1280;-72
2023/10/10 05:40:48;;;;;;;;;;;19.90;69.20;;;;;;5033955;28;1276;-72
2023/10/10 05:43:17;;;;;;;;;;;19.90;68.60;;;;;;5032745;28;1910;-72
2023/10/10 05:45:43;;;;;;;;;;;19.90;68.50;;;;;;5034840;28;1444;-73
2023/10/10 05:48:09;;;;;;;;;;;19.90;68.10;;;;;;5033148;28;4228;-71
2023/10/10 05:50:35;;;;;;;;;;;19.90;67.80;;;;;;5008650;28;4610;-71
2023/10/10 05:53:01;;;;;;;;;;;19.90;67.70;;;;;;5036705;28;4157;-71
2023/10/10 05:55:28;;;;;;;;;;;19.90;67.50;;;;;;5038528;28;1258;-70
2023/10/10 05:57:55;;;;;;;;;;;19.90;67.50;;;;;;5024976;28;1907;-69
2023/10/10 06:00:25;;;;;;;;;;;19.90;67.40;;;;;;5022207;28;1397;-70
2023/10/10 06:02:51;;;;;;;;;;;19.90;67.30;;;;;;5035998;28;1905;-71
2023/10/10 06:05:17;;;;;;;;;;;19.90;67.30;;;;;;5037903;28;1082;-69
2023/10/10 06:07:43;;;;;;;;;;;19.90;67.20;;;;;;5036119;28;1340;-70
2023/10/10 06:10:15;;;;;;;;;;;19.80;67.10;;;;;;5039333;28;1502;-72
2023/10/10 06:12:41;;;;;;;;;;;19.80;67.10;;;;;;5020057;28;1257;-71
2023/10/10 06:15:07;;;;;;;;;;;19.80;67.20;;;;;;5039438;28;1410;-68
2023/10/10 06:17:33;;;;;;;;;;;19.80;67.20;;;;;;5041198;28;1461;-69
2023/10/10 06:19:59;;;;;;;;;;;19.80;67.20;;;;;;5018638;28;1382;-70
2023/10/10 06:22:25;;;;;;;;;;;19.80;67.20;;;;;;5035245;28;1445;-68
2023/10/10 06:24:55;;;;;;;;;;;19.80;67.20;;;;;;5033962;28;1902;-69
2023/10/10 06:27:21;;;;;;;;;;;19.80;67.20;;;;;;5033860;28;1307;-70
2023/10/10 06:29:48;;;;;;;;;;;19.80;67.40;;;;;;5033584;28;1526;-68
2023/10/10 06:32:16;;;;;;;;;;;19.80;67.40;;;;;;5035279;28;1781;-69
2023/10/10 06:34:48;;;;;;;;;;;19.80;67.40;;;;;;5032366;28;1530;-70
2023/10/10 06:37:13;;;;;;;;;;;19.80;67.40;;;;;;5033435;28;1453;-68
2023/10/10 06:39:54;;;;;;;;;;;19.80;67.40;;;;;;5015366;28;1406;-69
2023/10/10 06:42:28;;;;;;;;;;;19.80;67.40;;;;;;5034653;28;1248;-66
2023/10/10 06:44:54;;;;;;;;;;;19.80;67.50;;;;;;5018977;28;1975;-70
2023/10/10 06:47:21;;;;;;;;;;;19.80;67.60;;;;;;5034921;28;1368;-70
2023/10/10 06:49:54;;;;;;;;;;;19.80;67.60;;;;;;5011494;28;1917;-70
2023/10/10 06:52:19;;;;;;;;;;;19.80;67.60;;;;;;5018471;28;2069;-70
2023/10/10 06:54:45;;;;;;;;;;;19.80;67.60;;;;;;5017926;28;1395;-71
2023/10/10 06:57:17;;;;;;;;;;;19.80;67.70;;;;;;5017488;28;1249;-70
2023/10/10 06:59:42;;;;;;;;;;;19.80;67.70;;;;;;5019952;28;1283;-70
2023/10/10 07:02:20;;;;;;;;;;;19.80;67.80;;;;;;5036992;28;1269;-70
2023/10/10 07:04:52;;;;;;;;;;;19.80;67.80;;;;;;5037435;28;1967;-68
2023/10/10 07:07:20;;;;;;;;;;;19.80;67.80;;;;;;5036498;28;997;-70
2023/10/10 07:09:46;;;;;;;;;;;19.80;67.90;;;;;;5016462;28;1259;-69
2023/10/10 07:12:13;;;;;;;;;;;19.80;67.90;;;;;;5035911;28;1993;-70
2023/10/10 07:14:46;;;;;;;;;;;19.80;68.00;;;;;;5033564;28;1324;-70
2023/10/10 07:17:15;;;;;;;;;;;19.80;68.00;;;;;;5030903;28;1702;-70
2023/10/10 07:22:28;;;;;;;;;;;19.80;68.00;;;;;;5032534;28;1870;-71
2023/10/10 07:25:06;;;;;;;;;;;19.80;68.50;;;;;;5030361;28;1941;-71
2023/10/10 07:27:41;;;;;;;;;;;19.90;68.80;;;;;;5016931;28;1412;-68
2023/10/10 07:32:42;;;;;;;;;;;19.90;68.70;;;;;;5034996;28;1354;-70
2023/10/10 07:35:14;;;;;;;;;;;19.90;68.90;;;;;;5017874;28;1483;-71
2023/10/10 07:37:41;;;;;;;;;;;20.00;69.70;;;;;;5018314;28;1411;-68
2023/10/10 07:42:42;;;;;;;;;;;20.10;69.40;;;;;;5017594;28;1969;-70
2023/10/10 07:45:13;;;;;;;;;;;20.10;69.40;;;;;;5018201;28;1366;-70
2023/10/10 07:50:34;;;;;;;;;;;20.20;69.80;;;;;;4990317;28;1280;-69
2023/10/10 07:53:03;;;;;;;;;;;20.20;69.70;;;;;;5030664;28;1385;-70
2023/10/10 07:55:51;;;;;;;;;;;20.20;69.30;;;;;;5021595;28;1164;-70
2023/10/10 07:58:14;;;;;;;;;;;20.20;69.10;;;;;;5037681;28;1370;-72
2023/10/10 08:00:40;;;;;;;;;;;20.20;69.00;;;;;;5034009;28;1404;-70
2023/10/10 08:03:06;;;;;;;;;;;20.20;69.10;;;;;;5017912;28;1969;-70
2023/10/10 08:05:32;;;;;;;;;;;20.20;69.10;;;;;;5017388;28;1299;-70
2023/10/10 08:07:57;;;;;;;;;;;20.20;69.90;;;;;;5033363;28;1382;-70
2023/10/10 08:10:38;;;;;;;;;;;20.30;69.70;;;;;;5030029;28;1983;-70
2023/10/10 08:13:09;;;;;;;;;;;20.30;70.00;;;;;;5034101;28;2008;-70
2023/10/10 08:15:56;;;;;;;;;;;20.30;70.00;;;;;;5018425;28;1322;-70
2023/10/10 08:21:25;;;;;;;;;;;20.30;69.70;;;;;;4987953;28;1382;-71
2023/10/10 08:23:57;;;;;;;;;;;20.40;69.60;;;;;;5023666;28;1910;-70
2023/10/10 08:26:38;;;;;;;;;;;20.40;69.60;;;;;;5034200;28;1398;-71
2023/10/10 08:29:04;;;;;;;;;;;20.40;69.50;;;;;;5015007;28;1483;-70
2023/10/10 08:31:30;;;;;;;;;;;20.40;69.50;;;;;;5015677;28;1450;-70
2023/10/10 08:33:58;;;;;;;;;;;20.30;69.50;;;;;;5014145;28;1447;-70
2023/10/10 08:36:23;;;;;;;;;;;20.40;69.50;;;;;;5031536;28;1474;-70
2023/10/10 08:38:52;;;;;;;;;;;20.40;69.50;;;;;;5028841;28;1268;-70
2023/10/10 08:41:21;;;;;;;;;;;20.30;69.50;;;;;;5032570;28;1484;-70
2023/10/10 08:43:53;;;;;;;;;;;20.30;69.50;;;;;;5033212;28;1914;-71
2023/10/10 08:46:22;;;;;;;;;;;20.30;69.80;;;;;;5016152;28;1366;-70
2023/10/10 08:48:48;;;;;;;;;;;20.40;69.80;;;;;;5018880;28;1405;-71
2023/10/10 08:51:13;;;;;;;;;;;20.30;69.80;;;;;;5020384;28;1439;-70
2023/10/10 08:53:39;;;;;;;;;;;20.30;69.80;;;;;;5034914;28;1550;-70
2023/10/10 08:56:04;;;;;;;;;;;20.30;69.80;;;;;;5034688;28;1425;-71
2023/10/10 08:58:33;;;;;;;;;;;20.40;69.90;;;;;;5031587;28;1394;-70
2023/10/10 09:01:00;;;;;;;;;;;20.40;70.00;;;;;;5035220;28;1391;-70
2023/10/10 09:03:26;;;;;;;;;;;20.30;70.00;;;;;;5019588;28;1969;-70
2023/10/10 09:05:52;;;;;;;;;;;20.30;70.10;;;;;;5031338;28;2047;-70
2023/10/10 09:08:18;;;;;;;;;;;20.30;70.10;;;;;;5026879;28;2120;-70
2023/10/10 09:10:45;;;;;;;;;;;20.40;71.10;;;;;;5015351;28;1469;-70
2023/10/10 09:13:11;;;;;;;;;;;20.40;71.10;;;;;;5028540;28;1422;-70
2023/10/10 09:15:36;;;;;;;;;;;20.40;71.10;;;;;;5035260;28;1258;-70
2023/10/10 09:18:22;;;;;;;;;;;20.40;71.00;;;;;;5011665;28;1434;-71
2023/10/10 09:20:47;;;;;;;;;;;20.40;70.80;;;;;;5019512;28;1379;-69
2023/10/10 09:23:42;;;;;;;;;;;20.40;71.00;;;;;;5041839;28;1913;-70
2023/10/10 09:28:55;;;;;;;;;;;20.40;70.90;;;;;;5035438;28;1284;-70
2023/10/10 09:31:20;;;;;;;;;;;20.40;70.90;;;;;;5036307;28;1378;-71
2023/10/10 09:33:47;;;;;;;;;;;20.40;70.80;;;;;;5025976;28;1554;-70
2023/10/10 09:36:26;;;;;;;;;;;20.50;70.80;;;;;;5037004;28;1708;-70
2023/10/10 09:41:47;;;;;;;;;;;20.50;70.80;;;;;;5022654;28;1427;-71
2023/10/10 09:58:00;;;;;;;;;;;20.60;71.10;;;;;;5041488;28;1305;-67
2023/10/10 10:03:54;;;;;;;;;;;20.60;70.80;;;;;;5042156;28;1999;-67
2023/10/10 10:05:58;;;;;;;;;;;20.60;70.70;;;;;;5032979;28;1414;-67
2023/10/10 10:08:24;;;;;;;;;;;20.50;70.60;;;;;;5038511;28;1457;-67
2023/10/10 10:11:11;;;;;;;;;;;20.50;70.60;;;;;;5038851;28;1270;-67
2023/10/10 10:13:49;;;;;;;;;;;20.50;70.70;;;;;;5041458;28;1437;-66
2023/10/10 10:16:32;;;;;;;;;;;20.50;70.60;;;;;;5038458;28;1577;-67
2023/10/10 10:22:08;;;;;;;;;;;20.50;70.70;;;;;;5043294;28;1544;-67
2023/10/10 10:24:52;;;;;;;;;;;20.50;70.80;;;;;;5039329;28;1942;-67
2023/10/10 10:27:25;;;;;;;;;;;20.50;70.90;;;;;;5040386;28;1488;-67
2023/10/10 10:29:54;;;;;;;;;;;20.50;70.90;;;;;;5041957;28;1427;-67
2023/10/10 10:32:23;;;;;;;;;;;20.50;71.00;;;;;;5043713;28;1574;-67
2023/10/10 10:34:49;;;;;;;;;;;20.50;71.00;;;;;;5041614;28;1338;-66
2023/10/10 10:37:21;;;;;;;;;;;20.50;71.10;;;;;;5040931;28;1372;-67
2023/10/10 10:42:37;;;;;;;;;;;20.50;71.60;;;;;;5047290;28;1398;-67
2023/10/10 10:45:23;;;;;;;;;;;20.50;71.50;;;;;;5044968;28;2271;-67
2023/10/10 10:47:54;;;;;;;;;;;20.50;71.50;;;;;;5045069;28;1305;-66
2023/10/10 10:50:28;;;;;;;;;;;20.50;71.50;;;;;;5041998;28;1288;-66
2023/10/10 10:52:58;;;;;;;;;;;20.50;71.80;;;;;;5038730;28;1491;-66
2023/10/10 10:55:27;;;;;;;;;;;20.60;72.00;;;;;;5041417;28;1314;-66
2023/10/10 10:58:05;;;;;;;;;;;20.60;71.80;;;;;;5022890;28;1440;-66
2023/10/10 11:01:07;;;;;;;;;;;20.60;71.60;;;;;;5042515;28;1356;-64
2023/10/10 11:03:33;;;;;;;;;;;20.60;72.80;;;;;;5037900;28;1933;-64
2023/10/10 11:06:20;;;;;;;;;;;20.60;72.10;;;;;;5039239;28;1549;-64
2023/10/10 11:13:50;;;;;;;;;;;20.60;72.60;;;;;;5039313;28;1364;-64
2023/10/10 11:16:15;;;;;;;;;;;20.60;71.80;;;;;;5039538;28;1421;-64
2023/10/10 11:18:41;;;;;;;;;;;20.60;71.80;;;;;;5040784;28;1495;-64
2023/10/10 11:21:11;;;;;;;;;;;20.60;71.80;;;;;;5042327;28;1391;-65
2023/10/10 11:23:46;;;;;;;;;;;20.60;72.50;;;;;;5038032;28;1955;-65
2023/10/10 11:26:14;;;;;;;;;;;20.60;72.40;;;;;;5056699;28;1385;-65
2023/10/10 11:28:47;;;;;;;;;;;20.60;72.60;;;;;;5042167;28;1427;-64
2023/10/10 11:31:14;;;;;;;;;;;20.70;73.40;;;;;;5040861;28;1349;-64
2023/10/10 11:33:49;;;;;;;;;;;20.70;72.50;;;;;;5036824;28;1444;-65
2023/10/10 11:36:50;;;;;;;;;;;20.70;73.10;;;;;;5040043;28;1721;-65
2023/10/10 11:39:31;;;;;;;;;;;20.70;72.30;;;;;;5042472;28;1389;-65
2023/10/10 11:41:56;;;;;;;;;;;20.70;72.20;;;;;;5043072;28;1270;-65
2023/10/10 11:44:22;;;;;;;;;;;20.80;72.10;;;;;;5044989;28;1932;-65
2023/10/10 11:47:02;;;;;;;;;;;20.80;72.10;;;;;;5039958;28;1242;-65
2023/10/10 11:49:28;;;;;;;;;;;20.80;72.00;;;;;;5043977;28;1231;-65
2023/10/10 11:51:54;;;;;;;;;;;20.80;71.90;;;;;;5043849;28;1457;-64
2023/10/10 11:54:25;;;;;;;;;;;20.80;71.80;;;;;;5038105;28;1725;-66
2023/10/10 11:56:51;;;;;;;;;;;20.80;71.80;;;;;;5041952;28;1034;-66
2023/10/10 11:59:17;;;;;;;;;;;20.80;71.70;;;;;;5040253;28;1528;-65
2023/10/10 12:01:51;;;;;;;;;;;20.80;71.70;;;;;;5045014;28;1327;-66
2023/10/10 12:04:32;;;;;;;;;;;20.80;71.70;;;;;;5044512;28;1906;-66
2023/10/10 12:06:59;;;;;;;;;;;20.80;71.70;;;;;;5044041;28;1222;-66
2023/10/10 12:09:26;;;;;;;;;;;20.80;71.70;;;;;;5041467;28;1248;-66
2023/10/10 12:11:58;;;;;;;;;;;20.80;71.80;;;;;;5042328;28;1365;-66
2023/10/10 12:14:25;;;;;;;;;;;20.80;71.70;;;;;;5038412;28;1220;-65
2023/10/10 12:16:57;;;;;;;;;;;20.80;71.70;;;;;;5038995;28;1308;-66
2023/10/10 12:19:22;;;;;;;;;;;20.80;71.80;;;;;;5046601;28;1159;-66
2023/10/10 12:21:48;;;;;;;;;;;20.80;72.20;;;;;;5042871;28;1299;-66
2023/10/10 12:24:13;;;;;;;;;;;20.80;72.00;;;;;;5045189;28;1902;-66
2023/10/10 12:26:41;;;;;;;;;;;20.80;72.20;;;;;;5039601;28;1429;-65
2023/10/10 12:29:10;;;;;;;;;;;20.80;72.40;;;;;;5025616;28;2021;-66
2023/10/10 12:31:36;;;;;;;;;;;20.80;72.30;;;;;;5040009;28;1535;-65
2023/10/10 12:34:02;;;;;;;;;;;20.80;72.20;;;;;;5037847;28;1590;-65
2023/10/10 12:36:32;;;;;;;;;;;20.80;72.20;;;;;;5040641;28;1390;-65
2023/10/10 12:38:59;;;;;;;;;;;20.80;72.40;;;;;;5039905;28;1257;-65
2023/10/10 12:41:25;;;;;;;;;;;20.80;72.30;;;;;;5034229;28;1878;-65
2023/10/10 12:43:50;;;;;;;;;;;20.80;72.30;;;;;;5033904;28;1901;-65
2023/10/10 12:46:22;;;;;;;;;;;20.80;72.20;;;;;;5040426;28;1514;-65
2023/10/10 12:48:51;;;;;;;;;;;20.80;72.10;;;;;;5040623;28;1147;-65
2023/10/10 12:51:16;;;;;;;;;;;20.80;72.30;;;;;;5039665;28;1550;-66
2023/10/10 12:53:44;;;;;;;;;;;20.80;72.60;;;;;;5040784;28;1488;-65
2023/10/10 12:56:20;;;;;;;;;;;20.80;72.30;;;;;;5042356;28;1361;-66
2023/10/10 12:58:51;;;;;;;;;;;20.80;72.00;;;;;;5046937;28;1941;-65
2023/10/10 13:01:23;;;;;;;;;;;20.80;72.00;;;;;;5048330;28;1382;-66
2023/10/10 13:03:48;;;;;;;;;;;20.80;71.90;;;;;;5043757;28;1992;-66
2023/10/10 13:06:14;;;;;;;;;;;20.70;71.90;;;;;;5046635;28;1634;-65
2023/10/10 13:08:47;;;;;;;;;;;20.70;72.00;;;;;;5048272;28;1543;-65
2023/10/10 13:11:16;;;;;;;;;;;20.70;72.00;;;;;;5041137;28;1534;-66
2023/10/10 13:14:32;;;;;;;;;;;20.70;72.00;;;;;;5045308;28;1366;-66
2023/10/10 13:19:09;;;;;;;;;;;20.70;72.10;;;;;;5045637;28;1440;-66
2023/10/10 13:21:38;;;;;;;;;;;20.70;72.00;;;;;;5043102;28;1530;-66
2023/10/10 13:24:09;;;;;;;;;;;20.70;72.10;;;;;;5040461;28;1969;-66
2023/10/10 13:26:36;;;;;;;;;;;20.70;72.30;;;;;;5044262;28;1449;-65
2023/10/10 13:29:02;;;;;;;;;;;20.70;72.40;;;;;;5045483;28;1430;-65
2023/10/10 13:31:29;;;;;;;;;;;20.70;72.30;;;;;;5040743;28;1513;-65
2023/10/10 13:33:54;;;;;;;;;;;20.70;72.30;;;;;;5039942;28;1466;-65
2023/10/10 13:36:20;;;;;;;;;;;20.70;72.30;;;;;;5044296;28;1291;-65
2023/10/10 13:38:49;;;;;;;;;;;20.70;72.30;;;;;;5042091;28;1315;-65
2023/10/10 13:41:16;;;;;;;;;;;20.70;72.30;;;;;;5040787;28;1930;-65
2023/10/10 13:43:51;;;;;;;;;;;20.70;72.30;;;;;;5045747;28;1949;-67
2023/10/10 13:46:18;;;;;;;;;;;20.70;72.30;;;;;;5043281;28;1432;-67
2023/10/10 13:48:43;;;;;;;;;;;20.70;72.30;;;;;;5041853;28;1554;-67
2023/10/10 13:51:09;;;;;;;;;;;20.70;72.30;;;;;;5043844;28;1432;-67
2023/10/10 13:53:35;;;;;;;;;;;20.70;72.30;;;;;;5043482;28;1268;-67
2023/10/10 13:56:01;;;;;;;;;;;20.70;72.30;;;;;;5044174;28;1516;-67
2023/10/10 13:58:26;;;;;;;;;;;20.70;72.30;;;;;;5041882;28;1379;-67
2023/10/10 14:00:55;;;;;;;;;;;20.70;72.30;;;;;;5043827;28;1341;-67
2023/10/10 14:03:31;;;;;;;;;;;20.70;72.50;;;;;;5041282;28;1929;-67
2023/10/10 14:06:00;;;;;;;;;;;20.70;72.70;;;;;;5035030;28;1211;-67
2023/10/10 14:08:26;;;;;;;;;;;20.70;72.70;;;;;;5041054;28;1244;-66
2023/10/10 14:10:53;;;;;;;;;;;20.70;72.60;;;;;;5037838;28;1450;-66
2023/10/10 14:13:19;;;;;;;;;;;20.70;72.50;;;;;;5041370;28;1407;-67
2023/10/10 14:15:54;;;;;;;;;;;20.70;72.40;;;;;;5030473;28;1569;-67
2023/10/10 14:18:24;;;;;;;;;;;20.70;72.40;;;;;;5041049;28;1357;-67
2023/10/10 14:20:50;;;;;;;;;;;20.70;72.30;;;;;;5042076;28;1084;-67
2023/10/10 14:23:22;;;;;;;;;;;20.70;72.30;;;;;;5042089;28;1927;-66
2023/10/10 14:25:49;;;;;;;;;;;20.70;72.50;;;;;;5043511;28;1399;-66
2023/10/10 14:28:16;;;;;;;;;;;20.80;72.80;;;;;;5042229;28;1323;-66
2023/10/10 14:30:42;;;;;;;;;;;20.80;72.80;;;;;;5043661;28;1307;-66
2023/10/10 14:33:08;;;;;;;;;;;20.80;73.10;;;;;;5042057;28;1859;-66
2023/10/10 14:35:34;;;;;;;;;;;20.80;73.00;;;;;;5043088;28;1115;-66
2023/10/10 14:38:00;;;;;;;;;;;20.80;72.90;;;;;;5043892;28;1449;-66
2023/10/10 14:40:26;;;;;;;;;;;20.80;72.70;;;;;;5042252;28;1467;-66
2023/10/10 14:42:54;;;;;;;;;;;20.80;72.60;;;;;;5041037;28;1543;-66
2023/10/10 14:45:24;;;;;;;;;;;20.80;72.50;;;;;;5041124;28;1796;-66
2023/10/10 14:47:51;;;;;;;;;;;20.80;72.50;;;;;;5041103;28;1376;-66
2023/10/10 14:50:23;;;;;;;;;;;20.80;72.40;;;;;;5044318;28;1424;-66
2023/10/10 14:52:50;;;;;;;;;;;20.80;72.40;;;;;;5039138;28;1375;-66
2023/10/10 14:55:25;;;;;;;;;;;20.80;72.70;;;;;;5041033;28;1387;-66
2023/10/10 14:57:54;;;;;;;;;;;20.80;73.20;;;;;;5046451;28;1158;-66
2023/10/10 15:00:23;;;;;;;;;;;20.80;72.90;;;;;;5043312;28;1426;-66
2023/10/10 15:02:53;;;;;;;;;;;20.80;72.70;;;;;;5039065;28;1658;-66
2023/10/10 15:05:19;;;;;;;;;;;20.80;72.80;;;;;;5040108;28;1968;-66
2023/10/10 15:07:45;;;;;;;;;;;20.80;72.50;;;;;;5038958;28;1333;-66
2023/10/10 15:10:11;;;;;;;;;;;20.80;72.60;;;;;;5040768;28;1136;-66
2023/10/10 15:12:36;;;;;;;;;;;20.80;72.60;;;;;;5040100;28;1355;-66
2023/10/10 15:15:02;;;;;;;;;;;20.80;72.70;;;;;;5040732;28;1137;-66
2023/10/10 15:17:28;;;;;;;;;;;20.80;72.70;;;;;;5038385;28;1084;-66
2023/10/10 15:19:53;;;;;;;;;;;20.80;72.70;;;;;;5046282;28;1254;-66
2023/10/10 15:22:19;;;;;;;;;;;20.80;72.60;;;;;;5041274;28;1969;-66
2023/10/10 15:24:50;;;;;;;;;;;20.80;72.60;;;;;;5039410;28;1965;-66
2023/10/10 15:27:16;;;;;;;;;;;20.80;72.60;;;;;;5042389;28;1450;-66
2023/10/10 15:29:42;;;;;;;;;;;20.80;72.50;;;;;;5042966;28;2179;-66
2023/10/10 15:32:08;;;;;;;;;;;20.80;72.50;;;;;;5039082;28;1393;-66
2023/10/10 15:34:34;;;;;;;;;;;20.80;72.40;;;;;;5040123;28;1487;-66
2023/10/10 15:37:00;;;;;;;;;;;20.80;72.30;;;;;;5039664;28;1582;-66
2023/10/10 15:39:26;;;;;;;;;;;20.80;72.40;;;;;;5041320;28;1243;-66
2023/10/10 15:41:51;;;;;;;;;;;20.80;72.40;;;;;;5040187;28;1445;-66
2023/10/10 15:44:17;;;;;;;;;;;20.80;72.40;;;;;;5039710;28;1959;-66
2023/10/10 15:46:43;;;;;;;;;;;20.80;72.40;;;;;;5037100;28;1285;-66
2023/10/10 15:49:10;;;;;;;;;;;20.80;72.50;;;;;;5034807;28;1477;-66
2023/10/10 15:51:38;;;;;;;;;;;20.80;72.50;;;;;;5039118;28;1265;-66
2023/10/10 15:54:08;;;;;;;;;;;20.80;72.80;;;;;;5050056;22;3770;-68
2023/10/10 15:56:33;;;;;;;;;;;20.70;72.70;;;;;;5055789;28;1354;-67
2023/10/10 15:59:00;;;;;;;;;;;20.80;72.70;;;;;;5053234;28;1400;-67
2023/10/10 16:01:29;;;;;;;;;;;20.80;73.00;;;;;;5053818;28;2009;-68
2023/10/10 16:03:59;;;;;;;;;;;20.80;73.00;;;;;;5027233;28;1975;-67
2023/10/10 16:06:25;;;;;;;;;;;20.80;72.80;;;;;;5024556;28;1937;-68
2023/10/10 16:08:53;;;;;;;;;;;20.80;72.50;;;;;;5019861;28;1441;-67
2023/10/10 16:11:21;;;;;;;;;;;20.80;72.20;;;;;;5022572;28;1370;-67
2023/10/10 16:13:48;;;;;;;;;;;20.80;72.00;;;;;;5020515;28;1889;-67
2023/10/10 16:16:14;;;;;;;;;;;20.80;71.40;;;;;;5021688;28;1429;-68
2023/10/10 16:18:40;;;;;;;;;;;20.70;70.10;;;;;;5019143;28;1490;-67
2023/10/10 16:21:08;;;;;;;;;;;20.70;69.70;;;;;;5022026;28;1323;-67
2023/10/10 16:23:35;;;;;;;;;;;20.70;69.80;;;;;;5019781;28;1965;-68
2023/10/10 16:26:04;;;;;;;;;;;20.60;69.70;;;;;;5018044;28;1388;-68
2023/10/10 16:28:35;;;;;;;;;;;20.60;69.80;;;;;;5018771;28;2128;-68
2023/10/10 16:31:07;;;;;;;;;;;20.60;69.60;;;;;;5023114;28;1619;-68
2023/10/10 16:33:37;;;;;;;;;;;20.50;69.70;;;;;;5017305;28;1361;-68
2023/10/10 16:36:20;;;;;;;;;;;20.50;69.60;;;;;;5020333;28;975;-68
2023/10/10 16:38:49;;;;;;;;;;;20.40;69.60;;;;;;5019887;28;1473;-67
2023/10/10 16:41:15;;;;;;;;;;;20.40;69.60;;;;;;5023239;28;1351;-67
2023/10/10 16:43:41;;;;;;;;;;;20.40;69.70;;;;;;5022032;28;1894;-67
2023/10/10 16:46:09;;;;;;;;;;;20.40;69.80;;;;;;5017761;28;2234;-67
2023/10/10 16:48:38;;;;;;;;;;;20.40;69.80;;;;;;5015290;28;1318;-67
2023/10/10 16:51:08;;;;;;;;;;;20.40;69.70;;;;;;5023915;28;1262;-66
2023/10/10 16:53:34;;;;;;;;;;;20.30;69.70;;;;;;5018099;28;1395;-67
2023/10/10 16:56:07;;;;;;;;;;;20.40;69.70;;;;;;5020711;28;1350;-67
2023/10/10 16:58:33;;;;;;;;;;;20.30;69.70;;;;;;5018150;28;1360;-67
2023/10/10 17:01:03;;;;;;;;;;;20.30;69.70;;;;;;5019775;28;1303;-67
2023/10/10 17:03:32;;;;;;;;;;;20.30;69.60;;;;;;5021529;28;1906;-68
2023/10/10 17:05:58;;;;;;;;;;;20.30;69.70;;;;;;5022214;28;1075;-67
2023/10/10 17:08:24;;;;;;;;;;;20.30;69.60;;;;;;5020802;28;1106;-67
2023/10/10 17:10:50;;;;;;;;;;;20.30;69.60;;;;;;5019386;28;1885;-68
2023/10/10 17:13:15;;;;;;;;;;;20.30;69.60;;;;;;5002159;28;4488;-66
2023/10/10 17:15:45;;;;;;;;;;;20.30;69.70;;;;;;5014954;28;4162;-66
2023/10/10 17:18:11;;;;;;;;;;;20.30;69.70;;;;;;5016635;28;1664;-67
2023/10/10 17:20:38;;;;;;;;;;;20.30;69.70;;;;;;5018022;28;1456;-68
2023/10/10 17:23:03;;;;;;;;;;;20.20;69.70;;;;;;5015651;28;1906;-67
2023/10/10 17:25:31;;;;;;;;;;;20.20;69.70;;;;;;5011803;28;4469;-67
2023/10/10 17:27:57;;;;;;;;;;;20.20;69.70;;;;;;5016088;28;4794;-67
2023/10/10 17:30:27;;;;;;;;;;;20.20;69.80;;;;;;5018566;28;1350;-67
2023/10/10 17:32:53;;;;;;;;;;;20.20;69.80;;;;;;5021118;28;1398;-67
2023/10/10 17:35:18;;;;;;;;;;;20.20;69.80;;;;;;5018721;28;1426;-67
2023/10/10 17:37:44;;;;;;;;;;;20.20;69.80;;;;;;5022193;28;1306;-67
2023/10/10 17:40:12;;;;;;;;;;;20.20;69.80;;;;;;5020421;28;1486;-68
2023/10/10 17:42:47;;;;;;;;;;;20.20;69.90;;;;;;5022049;28;1245;-67